Time;durP1;ratioP1;P1;durP2;ratioP2;P2;SDS_P1;SDS_P2;PMS_P1;PMS_P2;Temp;Humidity;BMP_temperature;BMP_pressure;BME280_temperature;BME280_humidity;BME280_pressure;Samples;Min_cycle;Max_cycle;Signal;HPM_P1;HPM_P2
2021/09/22 00:00:59;;;;;;;15.33;12.20;;;8.20;99.90;;;;;;5044460;28;20218;-80
2021/09/22 00:03:25;;;;;;;19.30;13.10;;;8.20;99.90;;;;;;5043373;28;20173;-80
2021/09/22 00:05:51;;;;;;;17.47;13.17;;;8.10;99.90;;;;;;5043941;28;20539;-80
2021/09/22 00:08:16;;;;;;;16.57;12.83;;;8.10;99.90;;;;;;5045112;28;20192;-80
2021/09/22 00:10:42;;;;;;;20.33;13.00;;;8.10;99.90;;;;;;5045680;28;20176;-80
2021/09/22 00:13:08;;;;;;;17.20;13.27;;;8.10;99.90;;;;;;5051085;28;20260;-79
2021/09/22 00:15:34;;;;;;;15.77;12.67;;;8.10;99.90;;;;;;5052133;28;20174;-80
2021/09/22 00:18:00;;;;;;;17.37;12.23;;;8.00;99.90;;;;;;5053935;28;20188;-79
2021/09/22 00:20:26;;;;;;;18.53;13.13;;;8.00;99.90;;;;;;5053861;28;20179;-79
2021/09/22 00:22:55;;;;;;;18.70;14.00;;;8.00;99.90;;;;;;5052263;28;20187;-79
2021/09/22 00:25:22;;;;;;;17.87;13.43;;;8.00;99.90;;;;;;5040079;28;20185;-80
2021/09/22 00:27:47;;;;;;;20.90;13.80;;;7.90;99.90;;;;;;5039351;28;20217;-80
2021/09/22 00:30:14;;;;;;;18.53;13.60;;;7.90;99.90;;;;;;5041551;28;20183;-80
2021/09/22 00:32:41;;;;;;;15.47;12.60;;;7.90;99.90;;;;;;5040468;28;20248;-80
2021/09/22 00:35:08;;;;;;;17.63;13.33;;;7.90;99.90;;;;;;5040273;28;20275;-80
2021/09/22 00:37:34;;;;;;;17.00;13.27;;;7.90;99.90;;;;;;5038431;28;20551;-80
2021/09/22 00:40:00;;;;;;;15.50;12.80;;;7.90;99.90;;;;;;5039610;28;20187;-80
2021/09/22 00:42:25;;;;;;;16.60;13.40;;;7.80;99.90;;;;;;5039273;28;20180;-80
2021/09/22 00:44:56;;;;;;;17.23;12.97;;;7.80;99.90;;;;;;5038999;28;20183;-80
2021/09/22 00:47:23;;;;;;;19.27;13.57;;;7.80;99.90;;;;;;5037003;28;20589;-80
2021/09/22 00:49:49;;;;;;;21.37;13.33;;;7.80;99.90;;;;;;5036155;28;20180;-80
2021/09/22 00:52:16;;;;;;;17.20;13.33;;;7.80;99.90;;;;;;5036091;28;20268;-80
2021/09/22 00:54:42;;;;;;;16.80;12.63;;;7.80;99.90;;;;;;5034957;28;20172;-81
2021/09/22 00:57:12;;;;;;;16.37;13.20;;;7.70;99.90;;;;;;5033832;28;20195;-80
2021/09/22 00:59:38;;;;;;;19.00;13.37;;;7.70;99.90;;;;;;5041980;28;20206;-80
2021/09/22 01:02:05;;;;;;;18.60;12.60;;;7.70;99.90;;;;;;5040639;28;20180;-80
2021/09/22 01:04:30;;;;;;;16.73;12.73;;;7.70;99.90;;;;;;5040863;28;20183;-80
2021/09/22 01:06:56;;;;;;;16.07;11.77;;;7.60;99.90;;;;;;5041668;28;20191;-80
2021/09/22 01:09:22;;;;;;;16.27;12.37;;;7.60;99.90;;;;;;5041981;28;20175;-80
2021/09/22 01:11:48;;;;;;;17.50;12.70;;;7.70;99.90;;;;;;5041766;28;20167;-80
2021/09/22 01:14:14;;;;;;;15.93;11.83;;;7.70;99.90;;;;;;5041315;28;20203;-80
2021/09/22 01:16:44;;;;;;;19.23;12.40;;;7.60;99.90;;;;;;5041601;28;20200;-81
2021/09/22 01:19:10;;;;;;;17.57;13.10;;;7.60;99.90;;;;;;5040571;28;20244;-80
2021/09/22 01:21:36;;;;;;;15.27;12.07;;;7.60;99.90;;;;;;5040318;28;20323;-80
2021/09/22 01:24:02;;;;;;;16.83;12.47;;;7.50;99.90;;;;;;5039906;28;20207;-80
2021/09/22 01:26:31;;;;;;;15.93;11.87;;;7.50;99.90;;;;;;5041156;28;20660;-81
2021/09/22 01:28:57;;;;;;;15.23;11.73;;;7.50;99.90;;;;;;5041890;28;20171;-80
2021/09/22 01:31:23;;;;;;;15.63;12.13;;;7.60;99.90;;;;;;5041731;28;20183;-80
2021/09/22 01:33:49;;;;;;;15.40;11.37;;;7.70;99.90;;;;;;5040000;28;20218;-80
2021/09/22 01:36:15;;;;;;;14.80;11.83;;;7.70;99.90;;;;;;5042264;28;20250;-80
2021/09/22 01:38:41;;;;;;;18.03;12.30;;;7.80;99.90;;;;;;5042526;28;20231;-80
2021/09/22 01:41:08;;;;;;;15.80;12.00;;;7.90;99.90;;;;;;5042775;28;20212;-80
2021/09/22 01:43:39;;;;;;;16.23;12.00;;;7.90;99.90;;;;;;5041916;28;20647;-80
2021/09/22 01:46:07;;;;;;;16.47;11.83;;;8.00;99.90;;;;;;5041993;28;20538;-80
2021/09/22 01:48:33;;;;;;;13.63;10.97;;;8.00;99.90;;;;;;5040848;28;20180;-80
2021/09/22 01:51:00;;;;;;;14.50;11.00;;;8.00;99.90;;;;;;5040700;28;20279;-80
2021/09/22 01:53:27;;;;;;;16.20;10.90;;;8.00;99.90;;;;;;5041887;28;20231;-80
2021/09/22 01:55:57;;;;;;;14.33;11.97;;;8.00;99.90;;;;;;5039793;28;20180;-81
2021/09/22 01:58:25;;;;;;;14.83;11.63;;;8.00;99.90;;;;;;5040645;28;20183;-80
2021/09/22 02:00:59;;;;;;;15.40;11.30;;;8.00;99.90;;;;;;5041926;28;20172;-80
2021/09/22 02:03:25;;;;;;;15.37;11.17;;;8.00;99.90;;;;;;5040687;28;20183;-80
2021/09/22 02:05:51;;;;;;;14.83;10.43;;;8.10;99.90;;;;;;5041664;28;20187;-80
2021/09/22 02:08:17;;;;;;;17.03;11.10;;;8.00;99.90;;;;;;5040711;28;20189;-81
2021/09/22 02:10:43;;;;;;;14.90;11.83;;;8.00;99.90;;;;;;5040168;28;20187;-80
2021/09/22 02:13:09;;;;;;;20.90;11.30;;;8.10;99.90;;;;;;5039684;28;20625;-80
2021/09/22 02:15:35;;;;;;;16.27;12.43;;;8.10;99.90;;;;;;5039922;28;20187;-80
2021/09/22 02:18:02;;;;;;;16.97;12.50;;;8.10;99.90;;;;;;5040978;28;20203;-80
2021/09/22 02:20:27;;;;;;;16.07;11.83;;;8.00;99.90;;;;;;5039401;28;20178;-80
2021/09/22 02:22:53;;;;;;;18.10;12.10;;;8.00;99.90;;;;;;5040811;28;20639;-81
2021/09/22 02:25:19;;;;;;;16.20;11.17;;;8.00;99.90;;;;;;5042492;28;20182;-80
2021/09/22 02:27:45;;;;;;;17.07;11.40;;;8.00;99.90;;;;;;5045024;28;20268;-80
2021/09/22 02:30:16;;;;;;;20.07;12.57;;;7.90;99.90;;;;;;5044549;28;20265;-80
2021/09/22 02:32:42;;;;;;;14.87;11.87;;;7.90;99.90;;;;;;5044930;28;20448;-80
2021/09/22 02:35:09;;;;;;;17.10;12.00;;;7.90;99.90;;;;;;5043288;28;20589;-80
2021/09/22 02:37:35;;;;;;;16.13;11.00;;;7.90;99.90;;;;;;5044465;28;20225;-80
2021/09/22 02:40:02;;;;;;;15.67;11.40;;;7.90;99.90;;;;;;5043352;28;20192;-80
2021/09/22 02:42:28;;;;;;;14.77;11.80;;;7.90;99.90;;;;;;5040018;28;20180;-80
2021/09/22 02:44:54;;;;;;;16.37;12.07;;;7.80;99.90;;;;;;5040025;28;20174;-80
2021/09/22 02:47:20;;;;;;;15.50;11.37;;;7.90;99.90;;;;;;5045290;28;20222;-80
2021/09/22 02:49:46;;;;;;;15.10;11.17;;;7.90;99.90;;;;;;5043534;28;20179;-80
2021/09/22 02:52:13;;;;;;;17.97;12.67;;;7.90;99.90;;;;;;5043232;28;20206;-80
2021/09/22 02:54:39;;;;;;;15.03;12.57;;;7.90;99.90;;;;;;5044087;28;20353;-80
2021/09/22 02:57:05;;;;;;;16.80;13.10;;;7.90;99.90;;;;;;5043163;28;20191;-80
2021/09/22 02:59:31;;;;;;;17.47;12.87;;;7.90;99.90;;;;;;5043476;28;20635;-80
2021/09/22 03:01:57;;;;;;;15.13;11.83;;;7.90;99.90;;;;;;5041837;28;20178;-80
2021/09/22 03:04:22;;;;;;;15.93;12.67;;;7.90;99.90;;;;;;5042846;28;20178;-81
2021/09/22 03:06:48;;;;;;;15.77;11.90;;;7.90;99.90;;;;;;5041100;28;20289;-80
2021/09/22 03:09:14;;;;;;;19.03;12.70;;;7.80;99.90;;;;;;5041506;28;20193;-80
2021/09/22 03:11:40;;;;;;;14.70;11.43;;;7.80;99.90;;;;;;5041791;28;20266;-80
2021/09/22 03:14:06;;;;;;;15.43;12.20;;;7.80;99.90;;;;;;5041217;28;20213;-80
2021/09/22 03:16:32;;;;;;;15.13;11.57;;;7.70;99.90;;;;;;5042220;28;20199;-80
2021/09/22 03:18:59;;;;;;;16.37;12.07;;;7.70;99.90;;;;;;5040774;28;20203;-80
2021/09/22 03:21:26;;;;;;;16.30;11.27;;;7.70;99.90;;;;;;5041900;28;20206;-80
2021/09/22 03:23:52;;;;;;;16.57;10.93;;;7.70;99.90;;;;;;5041037;28;20187;-81
2021/09/22 03:26:18;;;;;;;20.70;10.90;;;7.60;99.90;;;;;;5042343;28;20194;-80
2021/09/22 03:28:43;;;;;;;17.50;10.67;;;7.60;99.90;;;;;;5042338;28;20189;-80
2021/09/22 03:31:09;;;;;;;14.73;11.47;;;7.60;99.90;;;;;;5040612;28;20201;-80
2021/09/22 03:33:35;;;;;;;17.03;11.13;;;7.60;99.90;;;;;;5040412;28;20206;-80
2021/09/22 03:36:01;;;;;;;15.73;11.93;;;7.60;99.90;;;;;;5041259;28;20543;-80
2021/09/22 03:38:27;;;;;;;14.00;11.63;;;7.60;99.90;;;;;;5040016;28;20628;-80
2021/09/22 03:40:53;;;;;;;17.37;11.80;;;7.60;99.90;;;;;;5041623;28;20648;-80
2021/09/22 03:43:19;;;;;;;18.93;12.57;;;7.70;99.90;;;;;;5041170;28;20241;-80
2021/09/22 03:45:45;;;;;;;17.30;12.43;;;7.70;99.90;;;;;;5041119;28;20640;-80
2021/09/22 03:48:10;;;;;;;18.63;12.07;;;7.70;99.90;;;;;;5040830;28;20194;-80
2021/09/22 03:50:36;;;;;;;15.13;12.27;;;7.70;99.90;;;;;;5040555;28;20174;-80
2021/09/22 03:53:02;;;;;;;17.13;13.03;;;7.70;99.90;;;;;;5040047;28;20605;-80
2021/09/22 03:55:28;;;;;;;13.93;11.33;;;7.70;99.90;;;;;;5039714;28;20172;-80
2021/09/22 03:57:53;;;;;;;15.40;11.43;;;7.70;99.90;;;;;;5039003;28;20265;-80
2021/09/22 04:00:19;;;;;;;19.23;12.73;;;7.70;99.90;;;;;;5037564;28;20201;-80
2021/09/22 04:02:44;;;;;;;19.87;12.60;;;7.80;99.90;;;;;;5037885;28;20172;-80
2021/09/22 04:05:10;;;;;;;18.17;12.93;;;7.70;99.90;;;;;;5036905;28;20202;-80
2021/09/22 04:07:36;;;;;;;16.10;12.17;;;7.80;99.90;;;;;;5038419;28;20230;-80
2021/09/22 04:10:03;;;;;;;17.40;12.53;;;7.80;99.90;;;;;;5037600;28;20185;-80
2021/09/22 04:12:29;;;;;;;15.13;11.93;;;7.80;99.90;;;;;;5043006;28;20179;-80
2021/09/22 04:14:54;;;;;;;17.03;12.10;;;7.80;99.90;;;;;;5042296;28;20167;-80
2021/09/22 04:17:20;;;;;;;17.53;12.20;;;7.90;99.90;;;;;;5040763;28;20198;-80
2021/09/22 04:19:46;;;;;;;17.23;11.50;;;7.80;99.90;;;;;;5042343;28;20170;-80
2021/09/22 04:22:12;;;;;;;15.57;12.60;;;7.80;99.90;;;;;;5041276;28;20194;-80
2021/09/22 04:24:38;;;;;;;14.87;11.50;;;7.80;99.90;;;;;;5041093;28;20174;-80
2021/09/22 04:27:03;;;;;;;14.93;11.77;;;7.80;99.90;;;;;;5042260;28;20215;-80
2021/09/22 04:29:29;;;;;;;17.33;12.73;;;7.80;99.90;;;;;;5041942;28;20187;-80
2021/09/22 04:31:55;;;;;;;15.03;11.43;;;7.80;99.90;;;;;;5042566;28;20177;-80
2021/09/22 04:34:21;;;;;;;15.07;10.90;;;7.80;99.90;;;;;;5041705;28;20217;-80
2021/09/22 04:36:48;;;;;;;18.20;11.47;;;7.70;99.90;;;;;;5040825;28;20206;-80
2021/09/22 04:39:14;;;;;;;14.73;11.00;;;7.70;99.90;;;;;;5040241;28;20175;-80
2021/09/22 04:41:40;;;;;;;18.00;11.77;;;7.70;99.90;;;;;;5042297;28;20178;-80
2021/09/22 04:44:05;;;;;;;14.33;11.30;;;7.70;99.90;;;;;;5042386;28;20206;-81
2021/09/22 04:46:31;;;;;;;16.33;12.20;;;7.60;99.90;;;;;;5042852;28;20202;-80
2021/09/22 04:48:57;;;;;;;14.30;10.73;;;7.70;99.90;;;;;;5041376;28;20702;-80
2021/09/22 04:51:23;;;;;;;20.10;12.80;;;7.70;99.90;;;;;;5040862;28;20209;-80
2021/09/22 04:53:49;;;;;;;16.93;12.30;;;7.70;99.90;;;;;;5041309;28;20340;-81
2021/09/22 04:56:15;;;;;;;16.37;12.03;;;7.70;99.90;;;;;;5041777;28;20193;-80
2021/09/22 04:58:42;;;;;;;17.60;12.47;;;7.70;99.90;;;;;;5042074;28;20176;-80
2021/09/22 05:01:08;;;;;;;17.27;12.30;;;7.70;99.90;;;;;;5040662;28;20176;-80
2021/09/22 05:03:34;;;;;;;17.23;12.43;;;7.70;99.90;;;;;;5042406;28;20194;-81
2021/09/22 05:05:59;;;;;;;15.50;11.73;;;7.70;99.90;;;;;;5040543;28;20204;-80
2021/09/22 05:08:26;;;;;;;56.50;28.90;;;7.60;99.90;;;;;;5041384;28;20223;-80
2021/09/22 05:10:53;;;;;;;57.07;28.60;;;7.60;99.90;;;;;;5041881;28;20206;-80
2021/09/22 05:13:20;;;;;;;51.13;25.43;;;7.60;99.90;;;;;;5042187;28;20198;-80
2021/09/22 05:15:46;;;;;;;32.30;18.50;;;7.50;99.90;;;;;;5042165;28;20167;-80
2021/09/22 05:18:12;;;;;;;31.23;18.50;;;7.40;99.90;;;;;;5042516;28;20198;-80
2021/09/22 05:20:37;;;;;;;29.67;16.67;;;7.40;99.90;;;;;;5041299;28;20183;-80
2021/09/22 05:23:03;;;;;;;19.83;13.30;;;7.40;99.90;;;;;;5037626;28;20183;-81
2021/09/22 05:25:29;;;;;;;19.13;12.13;;;7.40;99.90;;;;;;5040822;28;20222;-80
2021/09/22 05:27:54;;;;;;;19.50;11.20;;;7.40;99.90;;;;;;5040443;28;20238;-81
2021/09/22 05:30:20;;;;;;;20.63;12.60;;;7.30;99.90;;;;;;5040114;28;20223;-81
2021/09/22 05:32:46;;;;;;;18.93;12.57;;;7.30;99.90;;;;;;5039313;28;20202;-80
2021/09/22 05:35:11;;;;;;;17.00;12.57;;;7.30;99.90;;;;;;5039224;28;20331;-80
2021/09/22 05:37:37;;;;;;;27.57;16.43;;;7.30;99.90;;;;;;5041705;28;20197;-80
2021/09/22 05:40:05;;;;;;;46.87;25.07;;;7.30;99.90;;;;;;5041429;28;20179;-81
2021/09/22 05:42:30;;;;;;;38.67;21.57;;;7.30;99.90;;;;;;5041557;28;20197;-80
2021/09/22 05:44:56;;;;;;;24.00;15.50;;;7.40;99.90;;;;;;5041544;28;20170;-80
2021/09/22 05:47:22;;;;;;;20.00;13.07;;;7.30;99.90;;;;;;5041327;28;20255;-80
2021/09/22 05:49:47;;;;;;;18.70;13.23;;;7.30;99.90;;;;;;5042022;28;20235;-80
2021/09/22 05:52:13;;;;;;;15.27;11.57;;;7.30;99.90;;;;;;5041268;28;20183;-80
2021/09/22 05:54:39;;;;;;;22.93;13.97;;;7.30;99.90;;;;;;5041528;28;20205;-80
2021/09/22 05:57:04;;;;;;;17.03;12.67;;;7.30;99.90;;;;;;5040785;28;20194;-81
2021/09/22 05:59:30;;;;;;;18.70;13.77;;;7.40;99.90;;;;;;5041934;28;20226;-81
2021/09/22 06:01:56;;;;;;;22.87;14.67;;;7.40;99.90;;;;;;5042662;28;20174;-82
2021/09/22 06:04:22;;;;;;;20.93;14.67;;;7.50;99.90;;;;;;5042341;28;20174;-81
2021/09/22 06:06:48;;;;;;;19.80;13.83;;;7.50;99.90;;;;;;5042263;28;20433;-81
2021/09/22 06:09:13;;;;;;;19.13;12.93;;;7.60;99.90;;;;;;5042713;28;20208;-81
2021/09/22 06:11:39;;;;;;;18.90;14.40;;;7.70;99.90;;;;;;5042233;28;20210;-81
2021/09/22 06:14:05;;;;;;;19.27;15.93;;;7.70;99.90;;;;;;5040776;28;20568;-80
2021/09/22 06:16:30;;;;;;;18.07;15.17;;;7.80;99.90;;;;;;5039613;28;20355;-80
2021/09/22 06:18:57;;;;;;;25.50;15.57;;;7.90;99.90;;;;;;5041151;28;20249;-80
2021/09/22 06:21:23;;;;;;;20.43;14.10;;;7.90;99.90;;;;;;5042277;28;20186;-81
2021/09/22 06:23:52;;;;;;;18.80;14.83;;;8.00;99.90;;;;;;5040868;28;20640;-80
2021/09/22 06:26:20;;;;;;;25.23;15.30;;;8.00;99.90;;;;;;5041900;28;20232;-80
2021/09/22 06:28:45;;;;;;;21.83;15.67;;;8.10;99.90;;;;;;5041216;28;20198;-80
2021/09/22 06:31:11;;;;;;;21.00;16.13;;;8.20;99.90;;;;;;5042013;28;20178;-80
2021/09/22 06:33:36;;;;;;;21.73;16.03;;;8.30;99.90;;;;;;5043608;28;20205;-80
2021/09/22 06:36:02;;;;;;;24.33;16.70;;;8.30;99.90;;;;;;5043510;28;20230;-80
2021/09/22 06:38:28;;;;;;;23.40;16.80;;;8.40;99.90;;;;;;5042404;28;20206;-80
2021/09/22 06:40:55;;;;;;;22.87;16.20;;;8.50;99.90;;;;;;5044906;28;20205;-81
2021/09/22 06:43:21;;;;;;;24.53;16.90;;;8.60;99.90;;;;;;5051877;28;20250;-80
2021/09/22 06:45:46;;;;;;;24.50;16.97;;;8.60;99.90;;;;;;5051612;28;20183;-80
2021/09/22 06:48:12;;;;;;;21.73;15.80;;;8.70;99.90;;;;;;5052053;28;20225;-80
2021/09/22 06:50:37;;;;;;;24.23;17.13;;;8.70;99.90;;;;;;5052792;28;20194;-80
2021/09/22 06:53:03;;;;;;;24.20;16.40;;;8.80;99.90;;;;;;5052547;28;20203;-80
2021/09/22 06:55:29;;;;;;;26.37;16.53;;;8.90;99.90;;;;;;5039022;28;20547;-80
2021/09/22 06:57:55;;;;;;;27.30;15.23;;;9.00;99.90;;;;;;5037651;28;20187;-80
2021/09/22 07:00:21;;;;;;;21.33;15.73;;;9.10;99.90;;;;;;5038130;28;20661;-80
2021/09/22 07:02:46;;;;;;;23.33;16.47;;;9.20;99.90;;;;;;5037323;28;20253;-80
2021/09/22 07:05:14;;;;;;;18.20;14.10;;;9.40;99.90;;;;;;5037231;28;20590;-80
2021/09/22 07:07:40;;;;;;;21.90;15.50;;;9.50;99.90;;;;;;5037464;28;20287;-80
2021/09/22 07:10:07;;;;;;;19.77;15.17;;;9.70;99.90;;;;;;5035485;28;20636;-80
2021/09/22 07:12:33;;;;;;;18.97;14.70;;;9.80;99.90;;;;;;5039665;28;20712;-79
2021/09/22 07:14:59;;;;;;;19.87;14.80;;;9.90;99.90;;;;;;5039457;28;20209;-78
2021/09/22 07:17:25;;;;;;;18.33;14.17;;;10.00;99.90;;;;;;5038824;28;20276;-79
2021/09/22 07:19:51;;;;;;;18.47;14.07;;;10.20;99.90;;;;;;5037642;28;20178;-79
2021/09/22 07:22:17;;;;;;;17.73;12.97;;;10.30;99.90;;;;;;5035871;28;20545;-79
2021/09/22 07:24:42;;;;;;;18.10;12.23;;;10.40;99.90;;;;;;5036107;28;20182;-79
2021/09/22 07:27:09;;;;;;;17.00;12.43;;;10.50;99.90;;;;;;5041533;28;20220;-79
2021/09/22 07:29:34;;;;;;;15.13;11.97;;;10.60;99.90;;;;;;5043512;28;20232;-79
2021/09/22 07:32:00;;;;;;;17.57;12.63;;;10.60;99.90;;;;;;5042530;28;20186;-78
2021/09/22 07:34:26;;;;;;;14.43;11.97;;;10.80;99.90;;;;;;5043801;28;20211;-79
2021/09/22 07:36:53;;;;;;;16.20;11.60;;;10.90;99.90;;;;;;5042087;28;20206;-79
2021/09/22 07:39:19;;;;;;;13.57;11.03;;;11.10;99.90;;;;;;5044079;28;20283;-79
2021/09/22 07:41:45;;;;;;;16.27;11.90;;;11.20;99.90;;;;;;5043780;28;20173;-79
2021/09/22 07:44:11;;;;;;;15.17;11.90;;;11.30;99.90;;;;;;5041855;28;20181;-79
2021/09/22 07:46:36;;;;;;;13.90;11.40;;;11.50;99.90;;;;;;5044161;28;20194;-79
2021/09/22 07:49:03;;;;;;;11.93;10.63;;;11.60;99.90;;;;;;5044013;28;20219;-79
2021/09/22 07:51:29;;;;;;;20.33;10.80;;;11.80;99.90;;;;;;5043406;28;20185;-78
2021/09/22 07:53:54;;;;;;;16.60;11.27;;;12.10;99.90;;;;;;5044769;28;20569;-79
2021/09/22 07:56:20;;;;;;;15.07;11.67;;;12.40;99.90;;;;;;5045055;28;20240;-78
2021/09/22 07:58:46;;;;;;;15.63;11.30;;;12.90;99.90;;;;;;5045381;28;20178;-79
2021/09/22 08:01:12;;;;;;;14.33;10.50;;;13.50;99.90;;;;;;5042386;28;20178;-79
2021/09/22 08:03:40;;;;;;;13.47;9.83;;;14.00;99.90;;;;;;5042700;28;20255;-79
2021/09/22 08:06:07;;;;;;;17.37;9.90;;;14.50;99.90;;;;;;5044167;28;20182;-79
2021/09/22 08:08:33;;;;;;;14.67;10.43;;;15.10;99.90;;;;;;5043923;28;20597;-79
2021/09/22 08:10:59;;;;;;;12.80;9.40;;;15.60;99.90;;;;;;5042497;28;20182;-79
2021/09/22 08:13:25;;;;;;;11.33;9.00;;;16.00;99.90;;;;;;5042415;28;20206;-79
2021/09/22 08:15:50;;;;;;;11.70;9.07;;;16.30;99.90;;;;;;5043820;28;20185;-78
2021/09/22 08:18:16;;;;;;;10.77;8.17;;;16.50;99.90;;;;;;5039875;28;20184;-78
2021/09/22 08:20:42;;;;;;;11.87;9.53;;;16.70;99.90;;;;;;5037813;28;20516;-79
2021/09/22 08:23:08;;;;;;;11.37;9.50;;;16.90;99.90;;;;;;5041925;28;20173;-79
2021/09/22 08:25:34;;;;;;;12.97;8.47;;;17.10;99.90;;;;;;5041648;28;20603;-79
2021/09/22 08:28:00;;;;;;;9.33;7.73;;;17.30;99.90;;;;;;5040858;28;20268;-79
2021/09/22 08:30:26;;;;;;;9.07;7.30;;;17.40;99.90;;;;;;5042008;28;20664;-79
2021/09/22 08:32:52;;;;;;;10.33;8.53;;;17.50;99.90;;;;;;5040879;28;20203;-79
2021/09/22 08:35:17;;;;;;;11.23;7.70;;;17.40;99.90;;;;;;5042765;28;20202;-79
2021/09/22 08:37:44;;;;;;;9.83;8.23;;;17.40;99.90;;;;;;5041783;28;20191;-79
2021/09/22 08:40:11;;;;;;;9.47;8.50;;;17.40;99.90;;;;;;5042306;28;20183;-79
2021/09/22 08:42:37;;;;;;;9.40;8.20;;;17.60;99.90;;;;;;5041401;28;20531;-79
2021/09/22 08:45:04;;;;;;;11.10;8.50;;;17.60;99.90;;;;;;5043195;28;20209;-79
2021/09/22 08:47:30;;;;;;;10.73;8.30;;;17.50;99.90;;;;;;5041904;28;20331;-79
2021/09/22 08:49:56;;;;;;;9.33;8.37;;;17.60;99.90;;;;;;5040884;28;20185;-79
2021/09/22 08:52:21;;;;;;;8.80;7.90;;;17.40;99.90;;;;;;5042627;28;20581;-79
2021/09/22 08:54:47;;;;;;;10.13;8.87;;;17.40;99.90;;;;;;5041339;28;20209;-79
2021/09/22 08:57:13;;;;;;;14.47;8.57;;;17.40;99.90;;;;;;5041604;28;20662;-80
2021/09/22 08:59:39;;;;;;;10.77;8.10;;;17.50;99.90;;;;;;5042269;28;20170;-79
2021/09/22 09:02:11;;;;;;;9.27;8.00;;;17.80;99.90;;;;;;5041378;28;20178;-79
2021/09/22 09:04:40;;;;;;;11.97;8.80;;;17.80;99.90;;;;;;5035144;28;20185;-79
2021/09/22 09:07:07;;;;;;;9.67;8.67;;;17.90;99.90;;;;;;5038920;28;20198;-79
2021/09/22 09:09:38;;;;;;;9.60;8.47;;;18.00;99.90;;;;;;5039815;28;20227;-79
2021/09/22 09:12:17;;;;;;;10.23;8.30;;;18.10;99.90;;;;;;5041714;28;20175;-79
2021/09/22 09:14:53;;;;;;;15.10;9.13;;;18.00;99.90;;;;;;5040218;28;20651;-79
2021/09/22 09:17:38;;;;;;;9.80;8.80;;;17.90;99.90;;;;;;5041849;28;20254;-79
2021/09/22 09:20:15;;;;;;;8.93;8.07;;;18.00;99.90;;;;;;5042053;28;20632;-79
2021/09/22 09:22:40;;;;;;;8.87;8.00;;;18.00;99.90;;;;;;5041891;28;20170;-79
2021/09/22 09:25:07;;;;;;;9.87;8.87;;;18.10;99.90;;;;;;5041774;28;20167;-79
2021/09/22 09:27:35;;;;;;;9.87;8.77;;;18.30;99.90;;;;;;5041658;28;20566;-79
2021/09/22 09:30:17;;;;;;;10.27;8.60;;;18.40;99.90;;;;;;5041228;28;20236;-79
2021/09/22 09:32:43;;;;;;;10.03;8.33;;;18.30;99.90;;;;;;5039764;28;20177;-79
2021/09/22 09:35:14;;;;;;;10.90;8.47;;;18.40;99.90;;;;;;5039809;28;20666;-79
2021/09/22 09:37:48;;;;;;;10.20;9.03;;;18.20;99.90;;;;;;5041737;28;20190;-79
2021/09/22 09:40:24;;;;;;;9.57;8.57;;;17.90;99.90;;;;;;5041505;28;20169;-79
2021/09/22 09:42:58;;;;;;;9.97;8.97;;;17.60;99.90;;;;;;5041705;28;20178;-79
2021/09/22 09:45:30;;;;;;;10.30;9.30;;;17.70;99.90;;;;;;5041912;28;20155;-80
2021/09/22 09:48:01;;;;;;;9.70;8.73;;;17.70;99.90;;;;;;5039406;28;20220;-79
2021/09/22 09:50:27;;;;;;;14.33;9.23;;;18.00;99.90;;;;;;5041273;28;20178;-80
2021/09/22 09:53:00;;;;;;;9.83;8.93;;;18.00;99.90;;;;;;5043797;28;20198;-79
2021/09/22 09:55:27;;;;;;;10.47;8.63;;;18.10;99.90;;;;;;5042616;28;20193;-79
2021/09/22 09:57:55;;;;;;;10.00;8.63;;;18.20;99.90;;;;;;5041964;28;20193;-79
2021/09/22 10:00:24;;;;;;;10.33;8.70;;;18.10;99.90;;;;;;5040297;28;20224;-79
2021/09/22 10:02:51;;;;;;;9.13;8.33;;;17.90;99.90;;;;;;5040332;28;20221;-79
2021/09/22 10:05:17;;;;;;;9.00;8.00;;;17.70;99.90;;;;;;5041789;28;20209;-79
2021/09/22 10:07:45;;;;;;;9.27;8.40;;;17.80;99.90;;;;;;5046367;28;20196;-78
2021/09/22 10:10:11;;;;;;;9.27;7.70;;;18.00;99.90;;;;;;5048416;28;20170;-78
2021/09/22 10:12:38;;;;;;;9.97;8.80;;;18.30;99.90;;;;;;5047935;28;20178;-78
2021/09/22 10:15:04;;;;;;;9.03;8.00;;;18.50;99.90;;;;;;5048472;28;20175;-78
2021/09/22 10:17:32;;;;;;;9.57;8.20;;;18.30;99.90;;;;;;5046876;28;20220;-79
2021/09/22 10:20:01;;;;;;;9.73;8.83;;;18.50;99.90;;;;;;5038022;28;20170;-79
2021/09/22 10:22:27;;;;;;;9.13;7.90;;;18.50;99.90;;;;;;5036574;28;20178;-79
2021/09/22 10:24:54;;;;;;;8.63;7.83;;;18.70;99.90;;;;;;5034957;28;20304;-79
2021/09/22 10:27:20;;;;;;;10.57;7.70;;;18.90;99.90;;;;;;5034084;28;20221;-79
2021/09/22 10:30:07;;;;;;;8.80;8.00;;;19.00;99.90;;;;;;5035975;28;20174;-79
2021/09/22 10:32:38;;;;;;;9.30;8.37;;;19.00;99.90;;;;;;5034429;28;20162;-80
2021/09/22 10:35:25;;;;;;;10.67;8.13;;;18.80;99.90;;;;;;5033627;28;20258;-79
2021/09/22 10:37:58;;;;;;;9.40;8.13;;;18.10;99.90;;;;;;5036019;28;20271;-79
2021/09/22 10:40:33;;;;;;;9.13;7.40;;;18.10;99.90;;;;;;5039887;28;20184;-79
2021/09/22 10:43:14;;;;;;;7.80;7.07;;;18.20;99.90;;;;;;5040144;28;20185;-79
2021/09/22 10:45:44;;;;;;;7.63;6.93;;;18.30;99.90;;;;;;5038375;28;20204;-79
2021/09/22 10:48:24;;;;;;;9.93;6.87;;;18.30;99.90;;;;;;5041872;28;20301;-79
2021/09/22 10:50:52;;;;;;;9.73;7.60;;;18.20;99.90;;;;;;5042870;28;20189;-79
2021/09/22 10:53:33;;;;;;;7.37;6.40;;;18.10;99.90;;;;;;5043041;28;20206;-79
2021/09/22 10:56:16;;;;;;;7.70;6.77;;;18.00;99.90;;;;;;5043797;28;20253;-80
2021/09/22 10:58:52;;;;;;;7.63;6.83;;;18.10;99.90;;;;;;5041810;28;20264;-79
2021/09/22 11:01:35;;;;;;;7.70;7.00;;;18.30;99.90;;;;;;5043909;28;20604;-79
2021/09/22 11:04:02;;;;;;;8.33;7.43;;;18.50;99.90;;;;;;5041849;28;20558;-79
2021/09/22 11:06:51;;;;;;;7.47;6.33;;;18.80;99.90;;;;;;5043860;28;20225;-79
2021/09/22 11:09:17;;;;;;;5.37;4.73;;;19.30;99.90;;;;;;5042714;28;20210;-79
2021/09/22 11:12:01;;;;;;;5.63;4.50;;;19.80;99.90;;;;;;5041968;28;20191;-79
2021/09/22 11:14:37;;;;;;;7.40;4.87;;;20.20;99.80;;;;;;5042799;28;20190;-79
2021/09/22 11:17:14;;;;;;;4.77;4.30;;;20.50;99.60;;;;;;5041805;28;20196;-79
2021/09/22 11:19:42;;;;;;;5.47;4.97;;;21.00;99.90;;;;;;5042577;28;20160;-79
2021/09/22 11:22:15;;;;;;;5.10;4.67;;;21.40;99.90;;;;;;5041059;28;20267;-79
2021/09/22 11:24:42;;;;;;;6.37;5.47;;;21.00;97.20;;;;;;5041994;28;20177;-79
2021/09/22 11:27:18;;;;;;;5.07;4.57;;;21.10;99.90;;;;;;5041627;28;20221;-79
2021/09/22 11:29:50;;;;;;;5.70;4.40;;;21.30;98.40;;;;;;5042415;28;20169;-79
2021/09/22 11:32:29;;;;;;;5.43;4.20;;;21.50;96.80;;;;;;5041227;28;20220;-80
2021/09/22 11:35:06;;;;;;;4.33;3.93;;;22.00;99.90;;;;;;5041188;28;20181;-79
2021/09/22 11:37:41;;;;;;;3.37;3.13;;;22.60;98.00;;;;;;5042440;28;20271;-79
2021/09/22 11:40:17;;;;;;;3.83;3.17;;;22.90;94.50;;;;;;5042297;28;20161;-79
2021/09/22 11:43:10;;;;;;;3.60;3.33;;;22.90;95.10;;;;;;5042349;28;20183;-79
2021/09/22 11:45:43;;;;;;;3.23;2.80;;;23.00;91.60;;;;;;5042370;28;20179;-79
2021/09/22 11:48:11;;;;;;;5.63;3.43;;;23.40;94.60;;;;;;5043410;28;20191;-79
2021/09/22 11:50:45;;;;;;;3.87;3.33;;;23.80;91.10;;;;;;5041583;28;20594;-79
2021/09/22 11:53:12;;;;;;;4.17;3.50;;;23.70;90.80;;;;;;5044218;28;20251;-79
2021/09/22 11:55:39;;;;;;;4.33;3.37;;;23.70;94.70;;;;;;5042520;28;20180;-79
2021/09/22 11:58:19;;;;;;;5.63;3.40;;;24.30;90.50;;;;;;5043016;28;20600;-79
2021/09/22 12:00:49;;;;;;;4.00;3.00;;;24.40;92.60;;;;;;5047058;28;20532;-79
2021/09/22 12:03:15;;;;;;;4.30;3.10;;;24.60;90.50;;;;;;5047040;28;20261;-79
2021/09/22 12:05:43;;;;;;;3.63;3.23;;;24.60;87.70;;;;;;5047747;28;20178;-79
2021/09/22 12:08:11;;;;;;;3.23;2.63;;;24.50;90.50;;;;;;5041417;28;20247;-79
2021/09/22 12:10:42;;;;;;;2.73;2.10;;;24.70;85.40;;;;;;5041159;28;20179;-79
2021/09/22 12:13:08;;;;;;;3.37;2.90;;;24.80;81.80;;;;;;5042889;28;20178;-80
2021/09/22 12:15:34;;;;;;;5.07;3.40;;;24.70;85.10;;;;;;5041976;28;20185;-79
2021/09/22 12:18:01;;;;;;;3.40;3.03;;;24.60;83.10;;;;;;5040145;28;20204;-79
2021/09/22 12:20:30;;;;;;;3.60;3.07;;;24.30;88.40;;;;;;5040177;28;20208;-79
2021/09/22 12:23:05;;;;;;;3.10;2.80;;;24.30;87.90;;;;;;5039662;28;20210;-79
2021/09/22 12:25:33;;;;;;;2.33;2.13;;;24.60;81.80;;;;;;5040628;28;20187;-79
2021/09/22 12:28:00;;;;;;;2.20;1.63;;;24.60;87.00;;;;;;5039969;28;20211;-79
2021/09/22 12:30:31;;;;;;;3.23;2.40;;;24.70;85.70;;;;;;5041559;28;20182;-79
2021/09/22 12:33:00;;;;;;;3.03;2.73;;;24.90;82.90;;;;;;5041813;28;20178;-79
2021/09/22 12:35:33;;;;;;;13.03;2.70;;;25.10;83.70;;;;;;5041340;28;20187;-78
2021/09/22 12:38:01;;;;;;;2.73;2.33;;;24.70;85.90;;;;;;5039581;28;20202;-78
2021/09/22 12:40:40;;;;;;;2.67;2.13;;;25.00;79.30;;;;;;5043966;28;20628;-79